sensor_id;sensor_type;location;lat;lon;timestamp;temperature;humidity
78315;SHT31;68596;52.080;4.662;2023-12-20T00:00:38;9.40;74.54
78315;SHT31;68596;52.080;4.662;2023-12-20T00:03:22;9.36;75.03
78315;SHT31;68596;52.080;4.662;2023-12-20T00:06:08;9.36;75.44
78315;SHT31;68596;52.080;4.662;2023-12-20T00:08:52;9.33;75.39
78315;SHT31;68596;52.080;4.662;2023-12-20T00:11:37;9.31;75.76
78315;SHT31;68596;52.080;4.662;2023-12-20T00:14:21;9.31;75.55
78315;SHT31;68596;52.080;4.662;2023-12-20T00:17:05;9.31;75.54
78315;SHT31;68596;52.080;4.662;2023-12-20T00:19:49;9.36;76.15
78315;SHT31;68596;52.080;4.662;2023-12-20T00:22:33;9.36;76.03
78315;SHT31;68596;52.080;4.662;2023-12-20T00:25:17;9.39;76.53
78315;SHT31;68596;52.080;4.662;2023-12-20T00:28:02;9.44;76.70
78315;SHT31;68596;52.080;4.662;2023-12-20T00:30:46;9.46;76.59
78315;SHT31;68596;52.080;4.662;2023-12-20T00:33:30;9.44;76.78
78315;SHT31;68596;52.080;4.662;2023-12-20T00:36:14;9.43;76.23
78315;SHT31;68596;52.080;4.662;2023-12-20T00:38:59;9.46;76.44
78315;SHT31;68596;52.080;4.662;2023-12-20T00:41:43;9.46;75.70
78315;SHT31;68596;52.080;4.662;2023-12-20T00:44:27;9.48;75.96
78315;SHT31;68596;52.080;4.662;2023-12-20T00:47:11;9.50;76.33
78315;SHT31;68596;52.080;4.662;2023-12-20T00:49:55;9.51;76.14
78315;SHT31;68596;52.080;4.662;2023-12-20T00:52:39;9.54;76.34
78315;SHT31;68596;52.080;4.662;2023-12-20T00:55:23;9.55;76.02
78315;SHT31;68596;52.080;4.662;2023-12-20T00:58:07;9.54;76.16
78315;SHT31;68596;52.080;4.662;2023-12-20T01:00:51;9.51;75.92
78315;SHT31;68596;52.080;4.662;2023-12-20T01:03:35;9.48;75.74
78315;SHT31;68596;52.080;4.662;2023-12-20T01:06:20;9.46;74.96
78315;SHT31;68596;52.080;4.662;2023-12-20T01:09:04;9.41;75.45
78315;SHT31;68596;52.080;4.662;2023-12-20T01:11:49;9.44;75.39
78315;SHT31;68596;52.080;4.662;2023-12-20T01:14:33;9.44;75.07
78315;SHT31;68596;52.080;4.662;2023-12-20T01:17:17;9.44;74.99
78315;SHT31;68596;52.080;4.662;2023-12-20T01:20:01;9.46;74.79
78315;SHT31;68596;52.080;4.662;2023-12-20T01:22:45;9.47;74.95
78315;SHT31;68596;52.080;4.662;2023-12-20T01:25:29;9.50;75.17
78315;SHT31;68596;52.080;4.662;2023-12-20T01:28:13;9.48;75.26
78315;SHT31;68596;52.080;4.662;2023-12-20T01:30:58;9.48;75.14
78315;SHT31;68596;52.080;4.662;2023-12-20T01:33:42;9.52;75.67
78315;SHT31;68596;52.080;4.662;2023-12-20T01:36:26;9.55;75.71
78315;SHT31;68596;52.080;4.662;2023-12-20T01:39:10;9.57;74.95
78315;SHT31;68596;52.080;4.662;2023-12-20T01:41:54;9.61;74.76
78315;SHT31;68596;52.080;4.662;2023-12-20T01:44:39;9.62;75.05
78315;SHT31;68596;52.080;4.662;2023-12-20T01:47:23;9.62;74.60
78315;SHT31;68596;52.080;4.662;2023-12-20T01:50:08;9.58;74.51
78315;SHT31;68596;52.080;4.662;2023-12-20T01:52:55;9.64;74.10
78315;SHT31;68596;52.080;4.662;2023-12-20T01:55:42;9.60;74.32
78315;SHT31;68596;52.080;4.662;2023-12-20T01:58:28;9.61;74.08
78315;SHT31;68596;52.080;4.662;2023-12-20T02:01:12;9.64;74.23
78315;SHT31;68596;52.080;4.662;2023-12-20T02:03:58;9.65;73.98
78315;SHT31;68596;52.080;4.662;2023-12-20T02:06:43;9.62;74.10
78315;SHT31;68596;52.080;4.662;2023-12-20T02:09:29;9.60;74.21
78315;SHT31;68596;52.080;4.662;2023-12-20T02:12:13;9.64;74.13
78315;SHT31;68596;52.080;4.662;2023-12-20T02:14:57;9.67;74.45
78315;SHT31;68596;52.080;4.662;2023-12-20T02:17:41;9.70;74.59
78315;SHT31;68596;52.080;4.662;2023-12-20T02:20:25;9.70;74.94
78315;SHT31;68596;52.080;4.662;2023-12-20T02:23:09;9.68;74.31
78315;SHT31;68596;52.080;4.662;2023-12-20T02:25:53;9.68;74.06
78315;SHT31;68596;52.080;4.662;2023-12-20T02:28:37;9.68;74.25
78315;SHT31;68596;52.080;4.662;2023-12-20T02:31:23;9.67;73.73
78315;SHT31;68596;52.080;4.662;2023-12-20T02:34:07;9.64;73.39
78315;SHT31;68596;52.080;4.662;2023-12-20T02:36:51;9.55;73.34
78315;SHT31;68596;52.080;4.662;2023-12-20T02:39:35;9.55;73.59
78315;SHT31;68596;52.080;4.662;2023-12-20T02:42:19;9.54;73.23
78315;SHT31;68596;52.080;4.662;2023-12-20T02:45:03;9.48;73.30
78315;SHT31;68596;52.080;4.662;2023-12-20T02:47:48;9.46;73.58
78315;SHT31;68596;52.080;4.662;2023-12-20T02:50:32;9.47;73.50
78315;SHT31;68596;52.080;4.662;2023-12-20T02:53:16;9.46;73.33
78315;SHT31;68596;52.080;4.662;2023-12-20T02:56:01;9.44;73.93
78315;SHT31;68596;52.080;4.662;2023-12-20T02:58:45;9.46;73.79
78315;SHT31;68596;52.080;4.662;2023-12-20T03:01:29;9.50;73.95
78315;SHT31;68596;52.080;4.662;2023-12-20T03:04:13;9.50;74.33
78315;SHT31;68596;52.080;4.662;2023-12-20T03:06:57;9.55;74.36
78315;SHT31;68596;52.080;4.662;2023-12-20T03:09:41;9.52;74.42
78315;SHT31;68596;52.080;4.662;2023-12-20T03:12:26;9.57;74.89
78315;SHT31;68596;52.080;4.662;2023-12-20T03:15:10;9.55;74.15
78315;SHT31;68596;52.080;4.662;2023-12-20T03:17:55;9.57;74.49
78315;SHT31;68596;52.080;4.662;2023-12-20T03:20:39;9.60;74.22
78315;SHT31;68596;52.080;4.662;2023-12-20T03:23:25;9.60;74.14
78315;SHT31;68596;52.080;4.662;2023-12-20T03:26:10;9.58;73.74
78315;SHT31;68596;52.080;4.662;2023-12-20T03:28:54;9.58;74.18
78315;SHT31;68596;52.080;4.662;2023-12-20T03:31:38;9.65;74.49
78315;SHT31;68596;52.080;4.662;2023-12-20T03:34:22;9.65;74.36
78315;SHT31;68596;52.080;4.662;2023-12-20T03:37:07;9.70;73.66
78315;SHT31;68596;52.080;4.662;2023-12-20T03:39:51;9.68;73.78
78315;SHT31;68596;52.080;4.662;2023-12-20T03:42:35;9.67;73.75
78315;SHT31;68596;52.080;4.662;2023-12-20T03:45:19;9.64;73.51
78315;SHT31;68596;52.080;4.662;2023-12-20T03:48:04;9.62;73.28
78315;SHT31;68596;52.080;4.662;2023-12-20T03:50:48;9.60;73.12
78315;SHT31;68596;52.080;4.662;2023-12-20T03:53:32;9.55;73.19
78315;SHT31;68596;52.080;4.662;2023-12-20T03:56:16;9.55;73.40
78315;SHT31;68596;52.080;4.662;2023-12-20T03:59:00;9.55;73.11
78315;SHT31;68596;52.080;4.662;2023-12-20T04:01:44;9.52;73.86
78315;SHT31;68596;52.080;4.662;2023-12-20T04:04:28;9.55;74.09
78315;SHT31;68596;52.080;4.662;2023-12-20T04:07:12;9.57;73.89
78315;SHT31;68596;52.080;4.662;2023-12-20T04:09:56;9.58;73.43
78315;SHT31;68596;52.080;4.662;2023-12-20T04:12:40;9.58;74.42
78315;SHT31;68596;52.080;4.662;2023-12-20T04:15:25;9.58;73.63
78315;SHT31;68596;52.080;4.662;2023-12-20T04:18:08;9.57;74.12
78315;SHT31;68596;52.080;4.662;2023-12-20T04:20:53;9.54;74.54
78315;SHT31;68596;52.080;4.662;2023-12-20T04:23:37;9.54;74.43
78315;SHT31;68596;52.080;4.662;2023-12-20T04:26:21;9.52;73.98
78315;SHT31;68596;52.080;4.662;2023-12-20T04:29:04;9.55;74.04
78315;SHT31;68596;52.080;4.662;2023-12-20T04:31:48;9.52;73.67
78315;SHT31;68596;52.080;4.662;2023-12-20T04:34:35;9.51;74.20
78315;SHT31;68596;52.080;4.662;2023-12-20T04:37:20;9.46;74.42
78315;SHT31;68596;52.080;4.662;2023-12-20T04:40:05;9.48;74.71
78315;SHT31;68596;52.080;4.662;2023-12-20T04:42:49;9.47;74.07
78315;SHT31;68596;52.080;4.662;2023-12-20T04:45:33;9.39;74.14
78315;SHT31;68596;52.080;4.662;2023-12-20T04:48:17;9.40;74.27
78315;SHT31;68596;52.080;4.662;2023-12-20T04:51:01;9.34;74.35
78315;SHT31;68596;52.080;4.662;2023-12-20T04:53:45;9.34;75.14
78315;SHT31;68596;52.080;4.662;2023-12-20T04:56:32;9.36;75.18
78315;SHT31;68596;52.080;4.662;2023-12-20T04:59:16;9.44;74.96
78315;SHT31;68596;52.080;4.662;2023-12-20T05:02:00;9.44;74.61
78315;SHT31;68596;52.080;4.662;2023-12-20T05:04:44;9.48;74.89
78315;SHT31;68596;52.080;4.662;2023-12-20T05:07:29;9.50;74.46
78315;SHT31;68596;52.080;4.662;2023-12-20T05:10:13;9.54;74.74
78315;SHT31;68596;52.080;4.662;2023-12-20T05:12:57;9.55;74.67
78315;SHT31;68596;52.080;4.662;2023-12-20T05:15:41;9.54;74.55
78315;SHT31;68596;52.080;4.662;2023-12-20T05:18:25;9.60;74.60
78315;SHT31;68596;52.080;4.662;2023-12-20T05:21:09;9.58;74.70
78315;SHT31;68596;52.080;4.662;2023-12-20T05:23:53;9.60;74.44
78315;SHT31;68596;52.080;4.662;2023-12-20T05:26:37;9.64;74.44
78315;SHT31;68596;52.080;4.662;2023-12-20T05:29:22;9.64;74.15
78315;SHT31;68596;52.080;4.662;2023-12-20T05:32:06;9.68;74.23
78315;SHT31;68596;52.080;4.662;2023-12-20T05:34:50;9.71;74.05
78315;SHT31;68596;52.080;4.662;2023-12-20T05:37:34;9.73;74.13
78315;SHT31;68596;52.080;4.662;2023-12-20T05:40:18;9.75;74.14
78315;SHT31;68596;52.080;4.662;2023-12-20T05:43:02;9.78;74.50
78315;SHT31;68596;52.080;4.662;2023-12-20T05:45:46;9.80;74.27
78315;SHT31;68596;52.080;4.662;2023-12-20T05:48:30;9.81;74.45
78315;SHT31;68596;52.080;4.662;2023-12-20T05:51:14;9.84;74.15
78315;SHT31;68596;52.080;4.662;2023-12-20T05:53:59;9.82;74.54
78315;SHT31;68596;52.080;4.662;2023-12-20T05:56:43;9.85;74.09
78315;SHT31;68596;52.080;4.662;2023-12-20T05:59:27;9.87;74.22
78315;SHT31;68596;52.080;4.662;2023-12-20T06:02:11;9.88;73.80
78315;SHT31;68596;52.080;4.662;2023-12-20T06:04:58;9.90;74.21
78315;SHT31;68596;52.080;4.662;2023-12-20T06:07:42;9.87;74.11
78315;SHT31;68596;52.080;4.662;2023-12-20T06:10:26;9.87;74.72
78315;SHT31;68596;52.080;4.662;2023-12-20T06:13:10;9.90;74.66
78315;SHT31;68596;52.080;4.662;2023-12-20T06:15:55;9.90;74.62
78315;SHT31;68596;52.080;4.662;2023-12-20T06:18:40;9.97;74.68
78315;SHT31;68596;52.080;4.662;2023-12-20T06:21:24;9.97;73.89
78315;SHT31;68596;52.080;4.662;2023-12-20T06:24:09;10.02;74.14
78315;SHT31;68596;52.080;4.662;2023-12-20T06:26:54;9.98;74.04
78315;SHT31;68596;52.080;4.662;2023-12-20T06:29:39;9.98;73.83
78315;SHT31;68596;52.080;4.662;2023-12-20T06:32:25;9.97;73.89
78315;SHT31;68596;52.080;4.662;2023-12-20T06:35:09;9.91;74.48
78315;SHT31;68596;52.080;4.662;2023-12-20T06:37:53;9.92;74.09
78315;SHT31;68596;52.080;4.662;2023-12-20T06:40:37;9.95;74.16
78315;SHT31;68596;52.080;4.662;2023-12-20T06:43:21;9.95;74.57
78315;SHT31;68596;52.080;4.662;2023-12-20T06:46:06;10.01;74.31
78315;SHT31;68596;52.080;4.662;2023-12-20T06:48:50;10.03;73.58
78315;SHT31;68596;52.080;4.662;2023-12-20T06:51:34;10.05;74.07
78315;SHT31;68596;52.080;4.662;2023-12-20T06:54:18;10.06;73.55
78315;SHT31;68596;52.080;4.662;2023-12-20T06:57:02;10.08;73.70
78315;SHT31;68596;52.080;4.662;2023-12-20T06:59:48;10.05;74.04
78315;SHT31;68596;52.080;4.662;2023-12-20T07:02:32;10.05;74.19
78315;SHT31;68596;52.080;4.662;2023-12-20T07:05:17;10.06;74.19
78315;SHT31;68596;52.080;4.662;2023-12-20T07:08:03;10.09;74.41
78315;SHT31;68596;52.080;4.662;2023-12-20T07:10:47;10.09;74.09
78315;SHT31;68596;52.080;4.662;2023-12-20T07:13:31;10.06;74.07
78315;SHT31;68596;52.080;4.662;2023-12-20T07:16:15;10.05;73.66
78315;SHT31;68596;52.080;4.662;2023-12-20T07:18:59;10.08;74.17
78315;SHT31;68596;52.080;4.662;2023-12-20T07:21:43;10.05;74.16
78315;SHT31;68596;52.080;4.662;2023-12-20T07:24:28;9.99;74.13
78315;SHT31;68596;52.080;4.662;2023-12-20T07:27:12;9.99;73.96
78315;SHT31;68596;52.080;4.662;2023-12-20T07:29:56;9.97;73.96
78315;SHT31;68596;52.080;4.662;2023-12-20T07:32:40;10.02;74.03
78315;SHT31;68596;52.080;4.662;2023-12-20T07:35:24;9.98;74.07
78315;SHT31;68596;52.080;4.662;2023-12-20T07:38:10;9.95;73.50
78315;SHT31;68596;52.080;4.662;2023-12-20T07:40:56;9.98;74.03
78315;SHT31;68596;52.080;4.662;2023-12-20T07:43:40;9.97;74.39
78315;SHT31;68596;52.080;4.662;2023-12-20T07:46:24;10.02;74.18
78315;SHT31;68596;52.080;4.662;2023-12-20T07:49:08;10.02;73.48
78315;SHT31;68596;52.080;4.662;2023-12-20T07:51:54;10.03;73.48
78315;SHT31;68596;52.080;4.662;2023-12-20T07:54:38;10.01;73.72
78315;SHT31;68596;52.080;4.662;2023-12-20T07:57:23;9.99;74.35
78315;SHT31;68596;52.080;4.662;2023-12-20T08:00:08;10.03;74.66
78315;SHT31;68596;52.080;4.662;2023-12-20T08:02:52;10.03;74.07
78315;SHT31;68596;52.080;4.662;2023-12-20T08:05:38;10.06;73.88
78315;SHT31;68596;52.080;4.662;2023-12-20T08:08:26;10.08;73.78
78315;SHT31;68596;52.080;4.662;2023-12-20T08:11:10;10.08;74.62
78315;SHT31;68596;52.080;4.662;2023-12-20T08:13:54;10.08;74.50
78315;SHT31;68596;52.080;4.662;2023-12-20T08:16:38;10.12;74.87
78315;SHT31;68596;52.080;4.662;2023-12-20T08:19:22;10.15;74.36
78315;SHT31;68596;52.080;4.662;2023-12-20T08:22:06;10.13;74.62
78315;SHT31;68596;52.080;4.662;2023-12-20T08:24:51;10.15;75.09
78315;SHT31;68596;52.080;4.662;2023-12-20T08:27:41;10.18;74.98
78315;SHT31;68596;52.080;4.662;2023-12-20T08:30:26;10.21;74.20
78315;SHT31;68596;52.080;4.662;2023-12-20T08:33:13;10.22;74.65
78315;SHT31;68596;52.080;4.662;2023-12-20T08:35:57;10.26;74.74
78315;SHT31;68596;52.080;4.662;2023-12-20T08:38:42;10.29;74.34
78315;SHT31;68596;52.080;4.662;2023-12-20T08:41:26;10.31;73.96
78315;SHT31;68596;52.080;4.662;2023-12-20T08:44:10;10.29;74.29
78315;SHT31;68596;52.080;4.662;2023-12-20T08:46:54;10.38;74.69
78315;SHT31;68596;52.080;4.662;2023-12-20T08:49:40;10.36;74.74
78315;SHT31;68596;52.080;4.662;2023-12-20T08:52:24;10.41;74.64
78315;SHT31;68596;52.080;4.662;2023-12-20T08:55:10;10.43;74.15
78315;SHT31;68596;52.080;4.662;2023-12-20T08:57:54;10.42;74.12
78315;SHT31;68596;52.080;4.662;2023-12-20T09:00:38;10.42;74.40
78315;SHT31;68596;52.080;4.662;2023-12-20T09:03:22;10.42;74.34
78315;SHT31;68596;52.080;4.662;2023-12-20T09:06:06;10.43;73.54
78315;SHT31;68596;52.080;4.662;2023-12-20T09:08:51;10.45;73.83
78315;SHT31;68596;52.080;4.662;2023-12-20T09:11:35;10.42;73.50
78315;SHT31;68596;52.080;4.662;2023-12-20T09:14:19;10.49;73.87
78315;SHT31;68596;52.080;4.662;2023-12-20T09:17:03;10.53;73.56
78315;SHT31;68596;52.080;4.662;2023-12-20T09:19:47;10.57;73.23
78315;SHT31;68596;52.080;4.662;2023-12-20T09:22:31;10.62;73.71
78315;SHT31;68596;52.080;4.662;2023-12-20T09:25:15;10.63;73.44
78315;SHT31;68596;52.080;4.662;2023-12-20T09:28:01;10.64;73.35
78315;SHT31;68596;52.080;4.662;2023-12-20T09:30:45;10.63;73.42
78315;SHT31;68596;52.080;4.662;2023-12-20T09:33:29;10.64;73.81
78315;SHT31;68596;52.080;4.662;2023-12-20T09:36:13;10.69;73.41
78315;SHT31;68596;52.080;4.662;2023-12-20T09:38:58;10.70;73.56
78315;SHT31;68596;52.080;4.662;2023-12-20T09:41:44;10.74;73.06
78315;SHT31;68596;52.080;4.662;2023-12-20T09:44:32;10.80;73.21
78315;SHT31;68596;52.080;4.662;2023-12-20T09:47:20;10.87;72.99
78315;SHT31;68596;52.080;4.662;2023-12-20T09:50:07;10.89;73.34
78315;SHT31;68596;52.080;4.662;2023-12-20T09:52:53;10.96;73.01
78315;SHT31;68596;52.080;4.662;2023-12-20T09:55:38;11.01;72.70
78315;SHT31;68596;52.080;4.662;2023-12-20T09:58:23;11.00;72.63
78315;SHT31;68596;52.080;4.662;2023-12-20T10:01:07;10.99;72.45
78315;SHT31;68596;52.080;4.662;2023-12-20T10:03:54;11.00;72.55
78315;SHT31;68596;52.080;4.662;2023-12-20T10:06:40;11.00;72.34
78315;SHT31;68596;52.080;4.662;2023-12-20T10:09:24;11.06;72.39
78315;SHT31;68596;52.080;4.662;2023-12-20T10:12:09;11.08;72.49
78315;SHT31;68596;52.080;4.662;2023-12-20T10:14:53;11.08;72.38
78315;SHT31;68596;52.080;4.662;2023-12-20T10:17:37;11.10;72.02
78315;SHT31;68596;52.080;4.662;2023-12-20T10:20:21;11.14;71.88
78315;SHT31;68596;52.080;4.662;2023-12-20T10:23:05;11.17;71.64
78315;SHT31;68596;52.080;4.662;2023-12-20T10:25:56;11.18;71.54
78315;SHT31;68596;52.080;4.662;2023-12-20T10:28:41;11.20;72.16
78315;SHT31;68596;52.080;4.662;2023-12-20T10:31:29;11.21;72.09
78315;SHT31;68596;52.080;4.662;2023-12-20T10:34:14;11.30;71.77
78315;SHT31;68596;52.080;4.662;2023-12-20T10:36:59;11.31;71.93
78315;SHT31;68596;52.080;4.662;2023-12-20T10:39:52;11.35;71.66
78315;SHT31;68596;52.080;4.662;2023-12-20T10:42:40;11.28;72.04
78315;SHT31;68596;52.080;4.662;2023-12-20T10:45:24;11.35;72.22
78315;SHT31;68596;52.080;4.662;2023-12-20T10:48:13;11.32;72.08
78315;SHT31;68596;52.080;4.662;2023-12-20T10:50:58;11.28;72.21
78315;SHT31;68596;52.080;4.662;2023-12-20T10:53:42;11.34;72.67
78315;SHT31;68596;52.080;4.662;2023-12-20T10:56:32;11.39;72.59
78315;SHT31;68596;52.080;4.662;2023-12-20T10:59:19;11.44;72.43
78315;SHT31;68596;52.080;4.662;2023-12-20T11:02:05;11.41;72.42
78315;SHT31;68596;52.080;4.662;2023-12-20T11:08:39;11.42;72.32
78315;SHT31;68596;52.080;4.662;2023-12-20T11:11:35;11.44;72.48
78315;SHT31;68596;52.080;4.662;2023-12-20T11:17:17;11.44;72.53
78315;SHT31;68596;52.080;4.662;2023-12-20T11:20:07;11.39;72.06
78315;SHT31;68596;52.080;4.662;2023-12-20T11:22:58;11.37;72.40
78315;SHT31;68596;52.080;4.662;2023-12-20T11:25:52;11.44;72.36
78315;SHT31;68596;52.080;4.662;2023-12-20T11:28:36;11.47;72.32
78315;SHT31;68596;52.080;4.662;2023-12-20T11:31:20;11.47;71.47
78315;SHT31;68596;52.080;4.662;2023-12-20T11:34:14;11.51;71.90
78315;SHT31;68596;52.080;4.662;2023-12-20T11:37:02;11.51;71.99
78315;SHT31;68596;52.080;4.662;2023-12-20T11:40:07;11.57;71.90
78315;SHT31;68596;52.080;4.662;2023-12-20T11:42:53;11.59;71.83
78315;SHT31;68596;52.080;4.662;2023-12-20T11:45:49;11.59;71.90
78315;SHT31;68596;52.080;4.662;2023-12-20T11:48:37;11.62;71.64
78315;SHT31;68596;52.080;4.662;2023-12-20T11:51:22;11.58;71.92
78315;SHT31;68596;52.080;4.662;2023-12-20T11:54:06;11.59;71.68
78315;SHT31;68596;52.080;4.662;2023-12-20T11:56:50;11.59;72.17
78315;SHT31;68596;52.080;4.662;2023-12-20T11:59:36;11.61;72.01
78315;SHT31;68596;52.080;4.662;2023-12-20T12:02:20;11.59;72.28
78315;SHT31;68596;52.080;4.662;2023-12-20T12:05:05;11.57;72.00
78315;SHT31;68596;52.080;4.662;2023-12-20T12:07:49;11.62;71.94
78315;SHT31;68596;52.080;4.662;2023-12-20T12:10:33;11.69;71.98
78315;SHT31;68596;52.080;4.662;2023-12-20T12:13:17;11.75;71.57
78315;SHT31;68596;52.080;4.662;2023-12-20T12:16:02;11.76;71.33
78315;SHT31;68596;52.080;4.662;2023-12-20T12:18:57;11.76;71.45
78315;SHT31;68596;52.080;4.662;2023-12-20T12:21:41;11.75;71.28
78315;SHT31;68596;52.080;4.662;2023-12-20T12:24:25;11.76;71.16
78315;SHT31;68596;52.080;4.662;2023-12-20T12:27:12;11.72;71.35
78315;SHT31;68596;52.080;4.662;2023-12-20T12:30:04;11.74;70.59
78315;SHT31;68596;52.080;4.662;2023-12-20T12:32:48;11.76;70.98
78315;SHT31;68596;52.080;4.662;2023-12-20T12:35:34;11.75;71.68
78315;SHT31;68596;52.080;4.662;2023-12-20T12:38:22;11.76;70.97
78315;SHT31;68596;52.080;4.662;2023-12-20T12:41:06;11.74;70.84
78315;SHT31;68596;52.080;4.662;2023-12-20T12:43:51;11.76;70.87
78315;SHT31;68596;52.080;4.662;2023-12-20T12:46:35;11.75;70.61
78315;SHT31;68596;52.080;4.662;2023-12-20T12:49:22;11.74;70.99
78315;SHT31;68596;52.080;4.662;2023-12-20T12:52:06;11.75;70.99
78315;SHT31;68596;52.080;4.662;2023-12-20T12:54:50;11.71;70.73
78315;SHT31;68596;52.080;4.662;2023-12-20T12:57:34;11.72;71.03
78315;SHT31;68596;52.080;4.662;2023-12-20T13:00:18;11.71;71.25
78315;SHT31;68596;52.080;4.662;2023-12-20T13:03:03;11.69;70.92
78315;SHT31;68596;52.080;4.662;2023-12-20T13:05:48;11.65;71.71
78315;SHT31;68596;52.080;4.662;2023-12-20T13:08:32;11.58;72.35
78315;SHT31;68596;52.080;4.662;2023-12-20T13:11:16;11.58;71.88
78315;SHT31;68596;52.080;4.662;2023-12-20T13:14:00;11.57;72.28
78315;SHT31;68596;52.080;4.662;2023-12-20T13:16:44;11.59;72.67
78315;SHT31;68596;52.080;4.662;2023-12-20T13:19:29;11.55;71.75
78315;SHT31;68596;52.080;4.662;2023-12-20T13:22:15;11.58;72.38
78315;SHT31;68596;52.080;4.662;2023-12-20T13:24:59;11.61;71.92
78315;SHT31;68596;52.080;4.662;2023-12-20T13:27:43;11.59;71.64
78315;SHT31;68596;52.080;4.662;2023-12-20T13:30:27;11.54;71.87
78315;SHT31;68596;52.080;4.662;2023-12-20T13:33:11;11.51;72.03
78315;SHT31;68596;52.080;4.662;2023-12-20T13:35:55;11.52;71.94
78315;SHT31;68596;52.080;4.662;2023-12-20T13:38:43;11.51;71.44
78315;SHT31;68596;52.080;4.662;2023-12-20T13:41:27;11.50;72.16
78315;SHT31;68596;52.080;4.662;2023-12-20T13:44:11;11.52;72.33
78315;SHT31;68596;52.080;4.662;2023-12-20T13:46:56;11.52;72.56
78315;SHT31;68596;52.080;4.662;2023-12-20T13:49:40;11.55;72.38
78315;SHT31;68596;52.080;4.662;2023-12-20T13:52:24;11.54;71.72
78315;SHT31;68596;52.080;4.662;2023-12-20T13:55:09;11.51;72.50
78315;SHT31;68596;52.080;4.662;2023-12-20T13:57:53;11.47;72.57
78315;SHT31;68596;52.080;4.662;2023-12-20T14:00:38;11.45;72.52
78315;SHT31;68596;52.080;4.662;2023-12-20T14:03:22;11.39;72.81
78315;SHT31;68596;52.080;4.662;2023-12-20T14:06:06;11.41;72.91
78315;SHT31;68596;52.080;4.662;2023-12-20T14:08:50;11.45;72.55
78315;SHT31;68596;52.080;4.662;2023-12-20T14:11:34;11.45;72.39
78315;SHT31;68596;52.080;4.662;2023-12-20T14:14:28;11.45;72.80
78315;SHT31;68596;52.080;4.662;2023-12-20T14:17:12;11.39;73.15
78315;SHT31;68596;52.080;4.662;2023-12-20T14:19:56;11.39;73.12
78315;SHT31;68596;52.080;4.662;2023-12-20T14:22:40;11.38;73.13
78315;SHT31;68596;52.080;4.662;2023-12-20T14:25:28;11.41;72.85
78315;SHT31;68596;52.080;4.662;2023-12-20T14:28:12;11.37;73.12
78315;SHT31;68596;52.080;4.662;2023-12-20T14:30:58;11.39;73.09
78315;SHT31;68596;52.080;4.662;2023-12-20T14:33:42;11.37;72.87
78315;SHT31;68596;52.080;4.662;2023-12-20T14:36:27;11.44;72.67
78315;SHT31;68596;52.080;4.662;2023-12-20T14:39:11;11.42;73.15
78315;SHT31;68596;52.080;4.662;2023-12-20T14:41:57;11.45;73.27
78315;SHT31;68596;52.080;4.662;2023-12-20T14:44:41;11.44;73.12
78315;SHT31;68596;52.080;4.662;2023-12-20T14:47:26;11.42;73.43
78315;SHT31;68596;52.080;4.662;2023-12-20T14:50:10;11.41;73.34
78315;SHT31;68596;52.080;4.662;2023-12-20T14:53:00;11.41;72.84
78315;SHT31;68596;52.080;4.662;2023-12-20T14:55:44;11.42;73.20
78315;SHT31;68596;52.080;4.662;2023-12-20T14:58:29;11.44;73.44
78315;SHT31;68596;52.080;4.662;2023-12-20T15:01:13;11.34;73.67
78315;SHT31;68596;52.080;4.662;2023-12-20T15:03:57;11.31;73.74
78315;SHT31;68596;52.080;4.662;2023-12-20T15:06:41;11.31;74.09
78315;SHT31;68596;52.080;4.662;2023-12-20T15:09:26;11.34;74.12
78315;SHT31;68596;52.080;4.662;2023-12-20T15:12:11;11.31;74.41
78315;SHT31;68596;52.080;4.662;2023-12-20T15:14:55;11.24;74.58
78315;SHT31;68596;52.080;4.662;2023-12-20T15:17:40;11.24;74.41
78315;SHT31;68596;52.080;4.662;2023-12-20T15:20:24;11.25;74.22
78315;SHT31;68596;52.080;4.662;2023-12-20T15:23:08;11.24;74.47
78315;SHT31;68596;52.080;4.662;2023-12-20T15:25:52;11.24;74.56
78315;SHT31;68596;52.080;4.662;2023-12-20T15:28:36;11.23;74.46
78315;SHT31;68596;52.080;4.662;2023-12-20T15:31:20;11.23;74.28
78315;SHT31;68596;52.080;4.662;2023-12-20T15:34:10;11.21;74.64
78315;SHT31;68596;52.080;4.662;2023-12-20T15:36:55;11.24;74.77
78315;SHT31;68596;52.080;4.662;2023-12-20T15:39:41;11.27;74.94
78315;SHT31;68596;52.080;4.662;2023-12-20T15:42:25;11.27;75.10
78315;SHT31;68596;52.080;4.662;2023-12-20T15:45:10;11.21;75.20
78315;SHT31;68596;52.080;4.662;2023-12-20T15:47:54;11.15;75.68
78315;SHT31;68596;52.080;4.662;2023-12-20T15:50:38;11.13;75.82
78315;SHT31;68596;52.080;4.662;2023-12-20T15:53:22;11.10;76.09
78315;SHT31;68596;52.080;4.662;2023-12-20T15:56:06;10.99;76.23
78315;SHT31;68596;52.080;4.662;2023-12-20T15:58:51;10.90;76.66
78315;SHT31;68596;52.080;4.662;2023-12-20T16:01:35;10.96;76.64
78315;SHT31;68596;52.080;4.662;2023-12-20T16:04:19;10.97;76.73
78315;SHT31;68596;52.080;4.662;2023-12-20T16:07:04;11.01;76.59
78315;SHT31;68596;52.080;4.662;2023-12-20T16:09:48;11.07;76.43
78315;SHT31;68596;52.080;4.662;2023-12-20T16:12:32;11.06;76.85
78315;SHT31;68596;52.080;4.662;2023-12-20T16:15:16;11.06;77.20
78315;SHT31;68596;52.080;4.662;2023-12-20T16:18:02;11.06;77.36
78315;SHT31;68596;52.080;4.662;2023-12-20T16:20:47;11.03;77.53
78315;SHT31;68596;52.080;4.662;2023-12-20T16:23:31;10.97;77.72
78315;SHT31;68596;52.080;4.662;2023-12-20T16:26:15;10.96;77.96
78315;SHT31;68596;52.080;4.662;2023-12-20T16:28:59;10.93;78.17
78315;SHT31;68596;52.080;4.662;2023-12-20T16:31:44;10.89;78.51
78315;SHT31;68596;52.080;4.662;2023-12-20T16:34:28;10.84;78.77
78315;SHT31;68596;52.080;4.662;2023-12-20T16:37:13;10.89;78.91
78315;SHT31;68596;52.080;4.662;2023-12-20T16:39:57;10.83;79.09
78315;SHT31;68596;52.080;4.662;2023-12-20T16:42:41;10.86;79.15
78315;SHT31;68596;52.080;4.662;2023-12-20T16:45:26;10.86;79.27
78315;SHT31;68596;52.080;4.662;2023-12-20T16:48:10;10.84;79.33
78315;SHT31;68596;52.080;4.662;2023-12-20T16:50:54;10.86;79.40
78315;SHT31;68596;52.080;4.662;2023-12-20T16:53:38;10.80;79.52
78315;SHT31;68596;52.080;4.662;2023-12-20T16:56:22;10.80;79.71
78315;SHT31;68596;52.080;4.662;2023-12-20T16:59:06;10.70;79.81
78315;SHT31;68596;52.080;4.662;2023-12-20T17:01:51;10.69;80.16
78315;SHT31;68596;52.080;4.662;2023-12-20T17:04:36;10.64;80.24
78315;SHT31;68596;52.080;4.662;2023-12-20T17:07:20;10.64;80.32
78315;SHT31;68596;52.080;4.662;2023-12-20T17:10:05;10.67;80.30
78315;SHT31;68596;52.080;4.662;2023-12-20T17:12:50;10.67;80.29
78315;SHT31;68596;52.080;4.662;2023-12-20T17:15:34;10.69;80.32
78315;SHT31;68596;52.080;4.662;2023-12-20T17:18:18;10.74;80.38
78315;SHT31;68596;52.080;4.662;2023-12-20T17:21:03;10.81;80.08
78315;SHT31;68596;52.080;4.662;2023-12-20T17:23:47;10.86;79.61
78315;SHT31;68596;52.080;4.662;2023-12-20T17:26:32;10.77;79.90
78315;SHT31;68596;52.080;4.662;2023-12-20T17:29:16;10.76;79.91
78315;SHT31;68596;52.080;4.662;2023-12-20T17:32:00;10.80;79.83
78315;SHT31;68596;52.080;4.662;2023-12-20T17:34:44;10.83;79.81